createdAt,value
2017-10-17T00:02:13.612Z,15.80
2017-10-17T00:04:41.961Z,18.90
2017-10-17T00:07:09.452Z,17.60
2017-10-17T00:09:36.984Z,17.20
2017-10-17T00:12:04.508Z,16.33
2017-10-17T00:14:32.032Z,17.63
2017-10-17T00:16:59.556Z,17.20
2017-10-17T00:19:27.070Z,15.50
2017-10-17T00:21:54.596Z,17.37
2017-10-17T00:24:22.868Z,14.77
2017-10-17T00:26:51.164Z,13.40
2017-10-17T00:29:18.678Z,17.10
2017-10-17T00:31:46.197Z,17.20
2017-10-17T00:34:13.734Z,17.27
2017-10-17T00:36:41.243Z,16.90
2017-10-17T00:39:08.783Z,13.50
2017-10-17T00:41:36.281Z,13.13
2017-10-17T00:44:04.580Z,15.80
2017-10-17T00:46:32.220Z,16.13
2017-10-17T00:49:00.501Z,14.10
2017-10-17T00:51:28.997Z,12.97
2017-10-17T00:53:58.183Z,13.20
2017-10-17T00:56:25.705Z,13.97
2017-10-17T00:58:53.218Z,13.73
2017-10-17T01:01:20.776Z,13.63
2017-10-17T01:03:48.311Z,13.70
2017-10-17T01:06:16.605Z,14.37
2017-10-17T01:08:44.138Z,14.50
2017-10-17T01:11:12.496Z,12.13
2017-10-17T01:13:40.041Z,13.97
2017-10-17T01:16:07.549Z,13.20
2017-10-17T01:18:35.057Z,13.73
2017-10-17T01:21:03.372Z,12.87
2017-10-17T01:23:34.464Z,13.97
2017-10-17T01:26:09.659Z,12.90
2017-10-17T01:28:37.174Z,12.70
2017-10-17T01:31:04.677Z,13.43
2017-10-17T01:33:32.244Z,12.00
2017-10-17T01:35:59.776Z,10.50
2017-10-17T01:38:31.005Z,13.03
2017-10-17T01:40:59.288Z,12.17
2017-10-17T01:43:28.407Z,12.63
2017-10-17T01:45:56.689Z,12.30
2017-10-17T01:48:25.781Z,13.57
2017-10-17T01:50:54.106Z,12.60
2017-10-17T01:53:24.110Z,12.17
2017-10-17T01:55:51.617Z,12.43
2017-10-17T01:58:23.716Z,12.40
2017-10-17T02:00:51.279Z,13.60
2017-10-17T02:03:18.817Z,13.93
2017-10-17T02:05:46.345Z,14.90
2017-10-17T02:08:14.623Z,15.47
2017-10-17T02:11:01.681Z,15.87
2017-10-17T02:13:29.193Z,16.37
2017-10-17T02:15:57.516Z,17.93
2017-10-17T02:18:26.938Z,15.90
2017-10-17T02:20:58.087Z,18.40
2017-10-17T02:23:28.536Z,19.03
2017-10-17T02:26:02.548Z,19.73
2017-10-17T02:28:44.541Z,21.93
2017-10-17T02:31:12.826Z,17.60
2017-10-17T02:33:43.756Z,19.97
2017-10-17T02:36:12.041Z,17.37
2017-10-17T02:38:39.650Z,17.50
2017-10-17T02:41:07.181Z,18.73
2017-10-17T02:43:39.332Z,18.60
2017-10-17T02:46:06.840Z,20.07
2017-10-17T02:48:47.834Z,17.40
2017-10-17T02:51:15.441Z,19.30
2017-10-17T02:53:42.936Z,18.60
2017-10-17T02:56:10.469Z,18.50
2017-10-17T02:58:37.979Z,17.17
2017-10-17T03:01:08.925Z,18.30
2017-10-17T03:03:38.931Z,16.83
2017-10-17T03:06:07.353Z,18.60
2017-10-17T03:08:34.899Z,17.83
2017-10-17T03:11:02.400Z,15.67
2017-10-17T03:13:32.814Z,17.13
2017-10-17T03:16:01.157Z,15.63
2017-10-17T03:18:29.601Z,17.57
2017-10-17T03:21:00.628Z,17.67
2017-10-17T03:23:28.135Z,18.40
2017-10-17T03:25:55.664Z,17.13
2017-10-17T03:28:24.740Z,18.80
2017-10-17T03:30:53.901Z,16.67
2017-10-17T03:33:31.320Z,17.50
2017-10-17T03:38:54.172Z,17.33
2017-10-17T03:41:38.541Z,19.03
2017-10-17T03:47:32.221Z,16.93
2017-10-17T03:50:00.679Z,19.17
2017-10-17T03:52:31.668Z,17.00
2017-10-17T03:54:59.932Z,17.70
2017-10-17T03:57:30.367Z,17.87
2017-10-17T03:59:59.617Z,18.17
2017-10-17T04:02:27.129Z,14.07
2017-10-17T04:05:14.865Z,17.10
2017-10-17T04:07:50.876Z,16.20
2017-10-17T04:10:29.117Z,17.90
2017-10-17T04:13:05.929Z,17.03
2017-10-17T04:15:33.479Z,17.83
2017-10-17T04:18:03.656Z,16.30
2017-10-17T04:20:40.840Z,15.90
2017-10-17T04:23:30.944Z,17.03
2017-10-17T04:29:18.857Z,16.13
2017-10-17T04:31:47.160Z,17.77
2017-10-17T04:34:22.159Z,19.67
2017-10-17T04:37:00.475Z,16.87
2017-10-17T04:39:28.035Z,19.37
2017-10-17T04:48:20.622Z,18.40
2017-10-17T04:54:09.511Z,18.13
2017-10-17T04:56:37.018Z,16.40
2017-10-17T04:59:15.309Z,19.80
2017-10-17T05:01:45.076Z,16.63
2017-10-17T05:04:23.306Z,18.70
2017-10-17T05:06:52.412Z,15.53
2017-10-17T05:09:27.113Z,15.10
2017-10-17T05:11:54.648Z,16.50
2017-10-17T05:14:28.005Z,15.63
2017-10-17T05:16:56.277Z,16.57
2017-10-17T05:22:39.761Z,15.23
2017-10-17T05:25:12.124Z,16.00
2017-10-17T05:30:54.545Z,13.70
2017-10-17T05:36:32.130Z,15.80
2017-10-17T05:39:00.399Z,13.80
2017-10-17T05:41:28.710Z,13.97
2017-10-17T05:46:55.854Z,16.60
2017-10-17T05:49:29.659Z,12.70
2017-10-17T05:51:57.934Z,13.80
2017-10-17T05:54:25.457Z,14.40
2017-10-17T05:56:52.968Z,11.30
2017-10-17T05:59:20.509Z,13.17
2017-10-17T06:01:48.773Z,12.17
2017-10-17T06:04:17.069Z,14.70
2017-10-17T06:06:44.575Z,14.37
2017-10-17T06:09:12.070Z,15.23
2017-10-17T06:11:40.370Z,13.10
2017-10-17T06:16:53.780Z,15.50
2017-10-17T06:19:21.291Z,16.07
2017-10-17T06:21:49.589Z,16.50
2017-10-17T06:24:17.111Z,14.50
2017-10-17T06:26:44.703Z,14.37
2017-10-17T06:29:12.232Z,13.33
2017-10-17T06:31:39.737Z,13.73
2017-10-17T06:34:07.258Z,13.67
2017-10-17T06:36:35.548Z,14.33
2017-10-17T06:39:03.818Z,14.63
2017-10-17T06:41:32.074Z,14.13
2017-10-17T06:43:59.612Z,13.57
2017-10-17T06:46:27.105Z,15.53
2017-10-17T06:48:55.394Z,15.00
2017-10-17T06:51:22.926Z,15.30
2017-10-17T06:53:51.225Z,14.90
2017-10-17T06:56:18.742Z,16.23
2017-10-17T06:58:46.244Z,16.60
2017-10-17T07:01:13.764Z,15.23
2017-10-17T07:03:41.260Z,14.03
2017-10-17T07:06:08.830Z,16.40
2017-10-17T07:08:36.335Z,13.00
2017-10-17T07:11:03.852Z,17.43
2017-10-17T07:13:31.352Z,17.93
2017-10-17T07:15:59.008Z,17.40
2017-10-17T07:18:26.510Z,17.83
2017-10-17T07:20:54.004Z,15.60
2017-10-17T07:23:21.541Z,16.70
2017-10-17T07:25:49.045Z,19.10
2017-10-17T07:28:16.546Z,16.40
2017-10-17T07:30:44.074Z,16.80
2017-10-17T07:33:12.380Z,20.00
2017-10-17T07:35:39.929Z,17.20
2017-10-17T07:38:07.442Z,16.63
2017-10-17T07:40:34.975Z,19.57
2017-10-17T07:43:02.483Z,15.90
2017-10-17T07:45:30.774Z,17.13
2017-10-17T07:47:58.335Z,15.43
2017-10-17T07:50:25.858Z,15.40
2017-10-17T07:52:53.372Z,15.70
2017-10-17T07:55:20.929Z,13.87
2017-10-17T07:57:48.443Z,15.10
2017-10-17T08:00:16.716Z,13.90
2017-10-17T08:02:44.997Z,13.43
2017-10-17T08:05:13.285Z,14.27
2017-10-17T08:07:41.557Z,14.37
2017-10-17T08:10:09.837Z,13.87
2017-10-17T08:12:38.098Z,16.73
2017-10-17T08:15:06.387Z,13.60
2017-10-17T08:17:34.680Z,15.20
2017-10-17T08:20:02.201Z,13.83
2017-10-17T08:22:30.495Z,14.47
2017-10-17T08:24:58.012Z,13.70
2017-10-17T08:27:25.540Z,13.40
2017-10-17T08:29:53.044Z,11.83
2017-10-17T08:32:20.640Z,11.83
2017-10-17T08:34:48.142Z,12.80
2017-10-17T08:37:15.670Z,11.03
2017-10-17T08:39:43.178Z,12.50
2017-10-17T08:42:10.771Z,10.37
2017-10-17T08:44:38.285Z,11.60
2017-10-17T08:47:05.888Z,12.30
2017-10-17T08:49:33.416Z,12.20
2017-10-17T08:52:01.684Z,10.57
2017-10-17T08:54:29.208Z,10.73
2017-10-17T08:56:56.760Z,11.53
2017-10-17T08:59:24.304Z,10.03
2017-10-17T09:01:51.823Z,9.50
2017-10-17T09:04:20.094Z,10.70
2017-10-17T09:06:47.688Z,10.37
2017-10-17T09:09:15.182Z,10.07
2017-10-17T09:11:42.700Z,9.17
2017-10-17T09:14:10.207Z,9.40
2017-10-17T09:16:37.733Z,10.57
2017-10-17T09:19:05.253Z,10.20
2017-10-17T09:21:33.523Z,9.27
2017-10-17T09:24:01.814Z,9.40
2017-10-17T09:26:29.322Z,10.33
2017-10-17T09:28:56.829Z,10.60
2017-10-17T09:31:24.349Z,9.07
2017-10-17T09:33:52.632Z,9.63
2017-10-17T09:36:20.161Z,9.60
2017-10-17T09:38:47.661Z,10.10
2017-10-17T09:41:15.931Z,8.87
2017-10-17T09:43:44.239Z,9.63
2017-10-17T09:46:11.759Z,10.47
2017-10-17T09:48:39.255Z,9.40
2017-10-17T09:51:06.781Z,10.07
2017-10-17T09:53:35.075Z,10.07
2017-10-17T09:56:02.568Z,8.87
2017-10-17T09:58:30.090Z,8.60
2017-10-17T10:00:58.372Z,8.87
2017-10-17T10:03:26.434Z,9.13
2017-10-17T10:05:54.702Z,9.00
2017-10-17T10:08:22.977Z,8.27
2017-10-17T10:10:51.285Z,8.80
2017-10-17T10:13:18.788Z,7.97
2017-10-17T10:15:46.297Z,9.30
2017-10-17T10:18:13.800Z,10.20
2017-10-17T10:20:41.321Z,9.00
2017-10-17T10:23:08.822Z,9.27
2017-10-17T10:25:36.344Z,9.63
2017-10-17T10:28:03.858Z,10.50
2017-10-17T10:30:32.134Z,9.10
2017-10-17T10:33:00.416Z,9.47
2017-10-17T10:35:28.688Z,9.27
2017-10-17T10:37:56.959Z,8.67
2017-10-17T10:40:24.528Z,8.60
2017-10-17T10:42:52.057Z,9.23
2017-10-17T10:45:20.358Z,9.23
2017-10-17T10:47:47.858Z,10.10
2017-10-17T10:50:15.386Z,8.60
2017-10-17T10:52:42.893Z,8.70
2017-10-17T10:55:10.425Z,9.10
2017-10-17T10:57:37.933Z,8.63
2017-10-17T11:00:06.208Z,9.27
2017-10-17T11:02:34.506Z,9.70
2017-10-17T11:05:02.004Z,8.47
2017-10-17T11:07:29.530Z,8.37
2017-10-17T11:09:57.077Z,9.90
2017-10-17T11:12:24.588Z,10.07
2017-10-17T11:14:52.094Z,10.50
2017-10-17T11:17:19.628Z,9.23
2017-10-17T11:19:47.916Z,9.57
2017-10-17T11:22:15.421Z,8.93
2017-10-17T11:24:42.952Z,8.97
2017-10-17T11:27:10.458Z,8.70
2017-10-17T11:29:37.977Z,8.60
2017-10-17T11:32:05.478Z,9.37
2017-10-17T11:34:33.027Z,7.27
2017-10-17T11:37:00.524Z,7.67
2017-10-17T11:39:28.062Z,7.80
2017-10-17T11:42:08.139Z,7.90
2017-10-17T11:44:35.679Z,7.73
2017-10-17T11:47:03.210Z,8.47
2017-10-17T11:49:30.743Z,8.37
2017-10-17T11:51:58.268Z,7.83
2017-10-17T11:54:25.773Z,8.87
2017-10-17T11:56:53.352Z,8.63
2017-10-17T11:59:21.617Z,8.30
2017-10-17T12:01:49.128Z,8.50
2017-10-17T12:04:16.652Z,7.63
2017-10-17T12:06:44.928Z,8.60
2017-10-17T12:09:13.208Z,8.00
2017-10-17T12:11:41.484Z,8.60
2017-10-17T12:14:09.780Z,7.70
2017-10-17T12:16:37.297Z,9.00
2017-10-17T12:19:04.810Z,7.57
2017-10-17T12:21:32.305Z,6.80
2017-10-17T12:23:59.832Z,6.63
2017-10-17T12:26:27.343Z,7.37
2017-10-17T12:28:54.846Z,7.67
2017-10-17T12:31:22.367Z,8.37
2017-10-17T12:33:49.888Z,8.50
2017-10-17T12:36:17.380Z,8.00
2017-10-17T12:38:44.917Z,7.87
2017-10-17T12:41:12.431Z,7.93
2017-10-17T12:43:39.956Z,7.93
2017-10-17T12:46:07.489Z,7.57
2017-10-17T12:48:34.997Z,6.70
2017-10-17T12:51:02.534Z,7.03
2017-10-17T12:53:30.033Z,7.43
2017-10-17T12:55:57.522Z,7.10
2017-10-17T12:58:25.816Z,7.20
2017-10-17T13:00:53.373Z,6.37
2017-10-17T13:03:21.672Z,6.43
2017-10-17T13:05:49.182Z,6.57
2017-10-17T13:08:17.473Z,7.47
2017-10-17T13:10:45.777Z,7.30
2017-10-17T13:13:13.301Z,6.73
2017-10-17T13:15:41.569Z,6.90
2017-10-17T13:18:09.080Z,6.93
2017-10-17T13:20:36.611Z,6.70
2017-10-17T13:23:04.129Z,7.30
2017-10-17T13:25:31.687Z,7.00
2017-10-17T13:27:59.187Z,7.07
2017-10-17T13:30:26.725Z,7.33
2017-10-17T13:32:55.025Z,6.90
2017-10-17T13:35:22.550Z,6.50
2017-10-17T13:37:50.081Z,6.70
2017-10-17T13:40:17.590Z,6.63
2017-10-17T13:42:45.113Z,7.27
2017-10-17T13:45:12.600Z,7.20
2017-10-17T13:47:40.945Z,7.33
2017-10-17T13:50:08.444Z,7.00
2017-10-17T13:52:35.969Z,8.03
2017-10-17T13:55:03.473Z,7.23
2017-10-17T13:57:31.039Z,6.47
2017-10-17T13:59:58.566Z,6.47
2017-10-17T14:02:26.863Z,5.57
2017-10-17T14:04:54.393Z,6.73
2017-10-17T14:07:22.686Z,7.30
2017-10-17T14:09:50.213Z,6.10
2017-10-17T14:12:17.718Z,6.20
2017-10-17T14:14:45.238Z,7.37
2017-10-17T14:17:13.517Z,7.17
2017-10-17T14:19:41.830Z,6.53
2017-10-17T14:22:09.358Z,6.73
2017-10-17T14:24:36.937Z,6.90
2017-10-17T14:27:04.453Z,6.70
2017-10-17T14:29:32.727Z,6.80
2017-10-17T14:32:01.021Z,6.23
2017-10-17T14:34:29.298Z,6.90
2017-10-17T14:36:57.574Z,6.97
2017-10-17T14:39:25.864Z,7.20
2017-10-17T14:41:53.364Z,7.90
2017-10-17T14:44:20.931Z,6.50
2017-10-17T14:46:48.419Z,5.47
2017-10-17T14:49:16.676Z,7.63
2017-10-17T14:51:44.992Z,7.40
2017-10-17T14:54:12.500Z,7.87
2017-10-17T14:56:39.994Z,7.00
2017-10-17T14:59:07.573Z,8.83
2017-10-17T15:01:35.069Z,7.20
2017-10-17T15:04:02.595Z,6.70
2017-10-17T15:06:30.086Z,7.77
2017-10-17T15:08:57.597Z,7.97
2017-10-17T15:11:25.133Z,6.53
2017-10-17T15:13:53.400Z,6.93
2017-10-17T15:16:21.698Z,6.60
2017-10-17T15:18:49.203Z,8.00
2017-10-17T15:21:16.739Z,7.30
2017-10-17T15:23:44.249Z,7.10
2017-10-17T15:26:12.537Z,7.33
2017-10-17T15:28:40.042Z,7.60
2017-10-17T15:31:07.565Z,7.70
2017-10-17T15:33:35.096Z,7.50
2017-10-17T15:36:03.369Z,7.30
2017-10-17T15:38:31.651Z,6.87
2017-10-17T15:40:59.930Z,7.90
2017-10-17T15:43:27.457Z,6.90
2017-10-17T15:45:54.985Z,8.10
2017-10-17T15:48:22.704Z,7.50
2017-10-17T15:50:50.983Z,8.33
2017-10-17T15:53:19.278Z,7.57
2017-10-17T15:55:46.816Z,7.90
2017-10-17T15:58:15.094Z,6.97
2017-10-17T16:00:43.366Z,7.53
2017-10-17T16:03:11.665Z,7.33
2017-10-17T16:05:39.175Z,8.30
2017-10-17T16:08:06.688Z,7.93
2017-10-17T16:10:34.184Z,7.93
2017-10-17T16:13:01.708Z,8.00
2017-10-17T16:15:29.218Z,8.77
2017-10-17T16:17:57.509Z,9.10
2017-10-17T16:20:25.765Z,8.83
2017-10-17T16:22:54.069Z,8.40
2017-10-17T16:25:21.615Z,9.57
2017-10-17T16:27:50.012Z,8.27
2017-10-17T16:30:17.514Z,8.57
2017-10-17T16:32:45.016Z,9.07
2017-10-17T16:35:12.554Z,8.33
2017-10-17T16:37:40.880Z,10.43
2017-10-17T16:40:08.415Z,9.60
2017-10-17T16:42:35.996Z,8.70
2017-10-17T16:45:03.559Z,9.10
2017-10-17T16:47:31.069Z,7.90
2017-10-17T16:49:59.352Z,9.00
2017-10-17T16:52:26.901Z,10.97
2017-10-17T16:54:55.193Z,9.60
2017-10-17T16:57:22.731Z,9.80
2017-10-17T16:59:50.260Z,9.57
2017-10-17T17:02:17.799Z,10.07
2017-10-17T17:04:45.310Z,9.47
2017-10-17T17:07:12.883Z,10.20
2017-10-17T17:09:40.428Z,11.20
2017-10-17T17:12:08.714Z,11.00
2017-10-17T17:14:36.238Z,11.17
2017-10-17T17:17:03.792Z,11.33
2017-10-17T17:19:31.336Z,10.93
2017-10-17T17:21:58.905Z,11.17
2017-10-17T17:24:26.408Z,11.70
2017-10-17T17:26:53.930Z,11.03
2017-10-17T17:29:21.465Z,11.23
2017-10-17T17:31:48.979Z,12.87
2017-10-17T17:34:16.494Z,12.37
2017-10-17T17:36:44.039Z,12.73
2017-10-17T17:39:11.546Z,11.67
2017-10-17T17:41:39.102Z,12.57
2017-10-17T17:44:06.623Z,13.30
2017-10-17T17:46:34.168Z,14.40
2017-10-17T17:49:01.704Z,13.40
2017-10-17T17:51:29.228Z,14.53
2017-10-17T17:53:57.512Z,13.27
2017-10-17T17:56:25.022Z,12.93
2017-10-17T17:58:52.546Z,12.87
2017-10-17T18:01:20.072Z,12.73
2017-10-17T18:03:48.384Z,11.60
2017-10-17T18:06:15.890Z,10.20
2017-10-17T18:08:43.450Z,11.80
2017-10-17T18:11:10.970Z,13.00
2017-10-17T18:13:38.522Z,12.80
2017-10-17T18:16:06.068Z,11.83
2017-10-17T18:18:33.601Z,12.43
2017-10-17T18:21:01.894Z,11.70
2017-10-17T18:23:29.441Z,14.07
2017-10-17T18:25:57.724Z,13.00
2017-10-17T18:28:25.269Z,13.00
2017-10-17T18:30:53.545Z,13.87
2017-10-17T18:33:21.855Z,13.07
2017-10-17T18:35:49.397Z,13.20
2017-10-17T18:38:16.934Z,12.70
2017-10-17T18:40:46.199Z,13.97
2017-10-17T18:43:13.724Z,12.37
2017-10-17T18:45:41.276Z,13.37
2017-10-17T18:48:08.800Z,12.23
2017-10-17T18:50:37.121Z,12.50
2017-10-17T18:53:04.654Z,13.03
2017-10-17T18:55:32.212Z,13.60
2017-10-17T18:57:59.736Z,14.93
2017-10-17T19:00:27.295Z,15.60
2017-10-17T19:02:54.800Z,15.03
2017-10-17T19:05:22.320Z,15.20
2017-10-17T19:07:50.636Z,16.57
2017-10-17T19:10:18.152Z,16.50
2017-10-17T19:12:46.471Z,14.20
2017-10-17T19:15:13.983Z,15.03
2017-10-17T19:17:41.525Z,14.77
2017-10-17T19:20:09.081Z,14.77
2017-10-17T19:22:37.420Z,16.23
2017-10-17T19:25:04.979Z,17.03
2017-10-17T19:27:32.515Z,15.90
2017-10-17T19:30:00.838Z,15.40
2017-10-17T19:32:28.368Z,14.10
2017-10-17T19:34:57.237Z,16.00
2017-10-17T19:37:25.509Z,15.20
2017-10-17T19:39:54.022Z,15.70
2017-10-17T19:42:21.552Z,15.53
2017-10-17T19:44:49.823Z,14.97
2017-10-17T19:47:18.137Z,15.50
2017-10-17T19:49:45.701Z,14.00
2017-10-17T19:52:13.222Z,13.40
2017-10-17T19:54:40.757Z,14.13
2017-10-17T19:57:08.295Z,13.90
2017-10-17T19:59:35.825Z,14.40
2017-10-17T20:02:03.358Z,16.57
2017-10-17T20:04:31.102Z,15.80
2017-10-17T20:06:59.397Z,16.87
2017-10-17T20:09:26.940Z,15.23
2017-10-17T20:11:55.254Z,14.07
2017-10-17T20:14:22.778Z,15.80
2017-10-17T20:16:51.084Z,15.10
2017-10-17T20:19:18.601Z,14.67
2017-10-17T20:21:46.920Z,13.90
2017-10-17T20:24:14.447Z,15.03
2017-10-17T20:26:41.984Z,13.87
2017-10-17T20:29:09.527Z,16.37
2017-10-17T20:31:37.057Z,15.77
2017-10-17T20:34:04.592Z,11.30
2017-10-17T20:36:32.101Z,16.20
2017-10-17T20:38:59.632Z,15.40
2017-10-17T20:41:27.155Z,15.93
2017-10-17T20:43:54.722Z,15.60
2017-10-17T20:46:22.245Z,15.10
2017-10-17T20:48:49.772Z,15.30
2017-10-17T20:51:17.301Z,15.30
2017-10-17T20:53:44.824Z,14.10
2017-10-17T20:56:13.129Z,15.87
2017-10-17T20:58:40.666Z,18.63
2017-10-17T21:01:08.953Z,16.53
2017-10-17T21:03:36.472Z,17.67
2017-10-17T21:06:03.986Z,17.80
2017-10-17T21:08:31.543Z,17.10
2017-10-17T21:10:59.059Z,18.33
2017-10-17T21:13:26.605Z,18.63
2017-10-17T21:15:54.125Z,17.83
2017-10-17T21:18:21.654Z,16.17
2017-10-17T21:20:49.944Z,17.40
2017-10-17T21:23:17.464Z,18.50
2017-10-17T21:25:45.065Z,17.80
2017-10-17T21:28:12.571Z,17.00
2017-10-17T21:30:40.100Z,15.83
2017-10-17T21:33:07.621Z,18.90
2017-10-17T21:35:35.907Z,18.30
2017-10-17T21:38:03.416Z,17.10
2017-10-17T21:40:30.946Z,17.50
2017-10-17T21:42:58.458Z,18.23
2017-10-17T21:45:26.757Z,17.07
2017-10-17T21:47:54.268Z,17.90
2017-10-17T21:50:22.614Z,16.87
2017-10-17T21:52:50.154Z,14.17
2017-10-17T21:55:17.660Z,18.37
2017-10-17T21:57:45.183Z,18.30
2017-10-17T22:00:12.684Z,16.60
2017-10-17T22:02:40.974Z,17.37
2017-10-17T22:05:09.277Z,17.40
2017-10-17T22:07:36.780Z,17.87
2017-10-17T22:10:05.089Z,18.53
2017-10-17T22:12:32.601Z,16.17
2017-10-17T22:15:00.130Z,16.40
2017-10-17T22:17:27.647Z,17.30
2017-10-17T22:19:55.175Z,15.07
2017-10-17T22:22:22.936Z,17.60
2017-10-17T22:24:50.438Z,17.60
2017-10-17T22:27:18.734Z,16.77
2017-10-17T22:29:46.247Z,17.33
2017-10-17T22:32:13.775Z,17.47
2017-10-17T22:34:41.283Z,15.90
2017-10-17T22:37:09.559Z,15.90
2017-10-17T22:39:37.847Z,17.77
2017-10-17T22:42:05.365Z,16.13
2017-10-17T22:44:34.415Z,15.87
2017-10-17T22:47:01.920Z,17.53
2017-10-17T22:49:29.574Z,15.70
2017-10-17T22:51:57.107Z,15.30
2017-10-17T22:54:24.630Z,15.87
2017-10-17T22:56:52.928Z,16.73
2017-10-17T22:59:20.482Z,17.27
2017-10-17T23:01:48.069Z,17.87
2017-10-17T23:04:15.612Z,17.43
2017-10-17T23:06:43.101Z,17.13
2017-10-17T23:09:10.632Z,15.43
2017-10-17T23:11:38.146Z,15.53
2017-10-17T23:14:06.437Z,15.27
2017-10-17T23:16:34.012Z,16.10
2017-10-17T23:19:13.297Z,15.03
2017-10-17T23:21:40.825Z,13.67
2017-10-17T23:24:08.364Z,14.93
2017-10-17T23:26:35.860Z,15.97
2017-10-17T23:29:03.385Z,13.50
2017-10-17T23:31:30.925Z,16.40
2017-10-17T23:33:58.428Z,15.20
2017-10-17T23:36:25.957Z,14.67
2017-10-17T23:38:53.461Z,14.90
2017-10-17T23:41:20.996Z,14.70
2017-10-17T23:43:48.495Z,15.77
2017-10-17T23:46:16.002Z,14.77
2017-10-17T23:48:43.533Z,14.30
2017-10-17T23:51:11.056Z,14.87
2017-10-17T23:53:39.353Z,14.53
2017-10-17T23:56:06.849Z,14.33
2017-10-17T23:58:34.364Z,15.00
